createdAt,value
2022-07-30T00:00:25.865Z,22.22
2022-07-30T00:03:27.791Z,22.34
2022-07-30T00:06:29.284Z,22.30
2022-07-30T00:09:33.285Z,22.28
2022-07-30T00:12:35.983Z,22.33
2022-07-30T00:15:37.614Z,22.25
2022-07-30T00:18:39.217Z,22.21
2022-07-30T00:21:42.087Z,22.20
2022-07-30T00:24:44.317Z,22.18
2022-07-30T00:27:46.123Z,22.08
2022-07-30T00:30:47.621Z,22.07
2022-07-30T00:33:54.263Z,22.14
2022-07-30T00:36:55.745Z,22.10
2022-07-30T00:39:57.558Z,22.05
2022-07-30T00:42:58.996Z,22.04
2022-07-30T00:46:00.800Z,21.97
2022-07-30T00:49:02.390Z,21.93
2022-07-30T00:52:04.194Z,21.91
2022-07-30T00:55:08.216Z,21.79
2022-07-30T00:58:09.713Z,21.84
2022-07-30T01:01:11.526Z,21.79
2022-07-30T01:04:13.062Z,21.69
2022-07-30T01:07:14.655Z,21.69
2022-07-30T01:10:16.509Z,21.71
2022-07-30T01:13:18.202Z,21.64
2022-07-30T01:16:19.702Z,21.62
2022-07-30T01:19:46.648Z,21.60
2022-07-30T01:23:08.976Z,21.57
2022-07-30T01:26:14.419Z,21.58
2022-07-30T01:29:17.637Z,21.50
2022-07-30T01:32:22.619Z,21.28
2022-07-30T01:35:27.685Z,21.01
2022-07-30T01:38:34.889Z,20.83
2022-07-30T01:41:38.249Z,20.68
2022-07-30T01:44:41.579Z,20.61
2022-07-30T01:47:44.792Z,20.76
2022-07-30T01:50:49.066Z,20.81
2022-07-30T01:53:53.430Z,20.83
2022-07-30T01:56:57.280Z,20.67
2022-07-30T02:00:03.004Z,20.46
2022-07-30T02:03:18.386Z,20.38
2022-07-30T02:06:23.170Z,20.31
2022-07-30T02:09:31.264Z,20.14
2022-07-30T02:12:36.443Z,19.95
2022-07-30T02:15:48.757Z,19.88
2022-07-30T02:19:04.514Z,19.96
2022-07-30T02:22:15.312Z,19.86
2022-07-30T02:25:21.260Z,19.66
2022-07-30T02:28:24.431Z,19.64
2022-07-30T02:31:28.363Z,19.71
2022-07-30T02:34:33.977Z,19.82
2022-07-30T02:37:43.096Z,19.85
2022-07-30T02:40:46.548Z,19.92
2022-07-30T02:43:49.930Z,19.84
2022-07-30T02:46:54.408Z,19.84
2022-07-30T02:50:06.909Z,19.80
2022-07-30T02:53:10.907Z,19.82
2022-07-30T02:56:13.456Z,19.71
2022-07-30T02:59:20.883Z,19.74
2022-07-30T03:02:29.046Z,19.77
2022-07-30T03:05:31.582Z,19.86
2022-07-30T03:08:35.104Z,19.85
2022-07-30T03:11:37.289Z,19.80
2022-07-30T03:14:39.661Z,19.84
2022-07-30T03:17:49.048Z,19.85
2022-07-30T03:20:54.219Z,19.89
2022-07-30T03:23:56.693Z,19.85
2022-07-30T03:27:00.790Z,19.82
2022-07-30T03:30:03.356Z,19.75
2022-07-30T03:33:05.478Z,19.63
2022-07-30T03:36:08.492Z,19.64
2022-07-30T03:39:11.895Z,19.64
2022-07-30T03:42:13.827Z,19.59
2022-07-30T03:45:16.053Z,19.58
2022-07-30T03:48:18.088Z,19.59
2022-07-30T03:51:21.973Z,19.54
2022-07-30T03:54:23.733Z,19.55
2022-07-30T03:57:48.891Z,19.61
2022-07-30T04:00:51.769Z,19.66
2022-07-30T04:03:53.521Z,19.63
2022-07-30T04:06:55.066Z,19.58
2022-07-30T04:09:56.569Z,19.55
2022-07-30T04:13:13.441Z,19.46
2022-07-30T04:16:39.783Z,19.24
2022-07-30T04:19:49.812Z,19.20
2022-07-30T04:22:53.196Z,19.06
2022-07-30T04:25:55.862Z,19.02
2022-07-30T04:28:58.795Z,19.04
2022-07-30T04:32:00.846Z,19.06
2022-07-30T04:35:51.610Z,18.95
2022-07-30T04:39:00.029Z,18.98
2022-07-30T04:42:01.599Z,19.16
2022-07-30T04:45:09.660Z,19.30
2022-07-30T04:48:28.318Z,19.27
2022-07-30T04:51:39.055Z,19.32
2022-07-30T04:55:05.802Z,19.42
2022-07-30T04:58:08.917Z,19.46
2022-07-30T05:01:11.922Z,19.50
2022-07-30T05:04:16.166Z,19.51
2022-07-30T05:07:22.315Z,19.58
2022-07-30T05:10:24.445Z,19.66
2022-07-30T05:13:34.127Z,19.46
2022-07-30T05:16:38.185Z,19.28
2022-07-30T05:19:40.494Z,19.16
2022-07-30T05:22:42.730Z,19.27
2022-07-30T05:25:45.812Z,19.55
2022-07-30T05:28:55.193Z,19.81
2022-07-30T05:32:03.710Z,20.03
2022-07-30T05:35:09.280Z,20.15
2022-07-30T05:38:11.423Z,20.28
2022-07-30T05:41:31.832Z,20.41
2022-07-30T05:44:34.485Z,20.57
2022-07-30T05:47:36.199Z,20.58
2022-07-30T05:50:37.725Z,20.73
2022-07-30T05:53:40.290Z,20.69
2022-07-30T05:57:02.295Z,20.72
2022-07-30T06:00:11.928Z,20.75
2022-07-30T06:03:23.243Z,21.00
2022-07-30T06:06:44.952Z,21.16
2022-07-30T06:09:46.463Z,21.33
2022-07-30T06:12:48.508Z,21.30
2022-07-30T06:15:53.441Z,21.34
2022-07-30T06:18:54.967Z,21.29
2022-07-30T06:22:14.713Z,21.15
2022-07-30T06:25:21.834Z,21.25
2022-07-30T06:28:39.517Z,21.31
2022-07-30T06:31:55.613Z,21.63
2022-07-30T06:35:02.630Z,21.84
2022-07-30T06:38:07.985Z,21.87
2022-07-30T06:41:22.042Z,21.92
2022-07-30T06:44:27.122Z,21.92
2022-07-30T06:47:47.752Z,22.18
2022-07-30T06:50:49.452Z,22.14
2022-07-30T06:53:51.033Z,22.38
2022-07-30T06:57:12.450Z,22.66
2022-07-30T07:00:15.557Z,22.66
2022-07-30T07:03:19.992Z,22.68
2022-07-30T07:06:22.146Z,22.89
2022-07-30T07:09:23.618Z,23.01
2022-07-30T07:12:40.635Z,23.27
2022-07-30T07:15:42.306Z,23.39
2022-07-30T07:18:48.531Z,23.18
2022-07-30T07:21:50.550Z,23.44
2022-07-30T07:24:52.173Z,23.71
2022-07-30T07:28:11.169Z,23.87
2022-07-30T07:32:07.290Z,24.04
2022-07-30T07:34:36.244Z,23.96
2022-07-30T07:37:37.721Z,23.46
2022-07-30T07:40:40.931Z,23.55
2022-07-30T07:43:42.510Z,23.50
2022-07-30T07:46:53.093Z,23.74
2022-07-30T07:49:56.057Z,23.78
2022-07-30T07:52:57.832Z,24.00
2022-07-30T07:55:59.680Z,23.93
2022-07-30T07:59:01.324Z,24.12
2022-07-30T08:02:04.343Z,24.23
2022-07-30T08:05:25.028Z,24.44
2022-07-30T08:08:55.848Z,24.49
2022-07-30T08:12:22.572Z,24.60
2022-07-30T08:15:42.701Z,24.44
2022-07-30T08:19:19.192Z,24.39
2022-07-30T08:22:30.028Z,24.47
2022-07-30T08:25:31.628Z,24.39
2022-07-30T08:28:35.861Z,24.31
2022-07-30T08:31:37.981Z,24.57
2022-07-30T08:34:39.558Z,24.66
2022-07-30T08:37:42.153Z,24.74
2022-07-30T08:40:43.858Z,24.77
2022-07-30T08:43:50.867Z,25.09
2022-07-30T08:46:57.155Z,25.36
2022-07-30T08:50:29.028Z,25.50
2022-07-30T08:54:08.872Z,25.45
2022-07-30T08:57:11.806Z,25.75
2022-07-30T09:00:14.327Z,26.05
2022-07-30T09:03:16.406Z,26.09
2022-07-30T09:06:19.298Z,26.31
2022-07-30T09:09:20.965Z,26.02
2022-07-30T09:12:36.849Z,26.11
2022-07-30T09:15:38.922Z,26.26
2022-07-30T09:18:44.286Z,25.88
2022-07-30T09:21:56.935Z,26.19
2022-07-30T09:25:07.773Z,26.26
2022-07-30T09:28:38.426Z,26.28
2022-07-30T09:32:08.005Z,26.60
2022-07-30T09:35:43.276Z,26.79
2022-07-30T09:38:53.092Z,26.69
2022-07-30T09:42:20.328Z,27.02
2022-07-30T09:45:22.155Z,27.03
2022-07-30T09:48:25.732Z,27.06
2022-07-30T09:51:56.227Z,27.24
2022-07-30T09:54:59.888Z,27.28
2022-07-30T09:58:07.102Z,27.43
2022-07-30T10:01:09.878Z,27.35
2022-07-30T10:04:47.217Z,27.11
2022-07-30T10:08:01.110Z,27.56
2022-07-30T10:11:08.417Z,27.33
2022-07-30T10:14:10.449Z,27.14
2022-07-30T10:17:12.875Z,26.72
2022-07-30T10:20:16.407Z,26.98
2022-07-30T10:23:26.487Z,27.45
2022-07-30T10:26:53.172Z,28.04
2022-07-30T10:30:19.770Z,27.79
2022-07-30T10:33:34.912Z,27.98
2022-07-30T10:36:44.877Z,28.19
2022-07-30T10:40:11.134Z,28.20
2022-07-30T10:43:54.350Z,28.21
2022-07-30T10:47:07.674Z,28.13
2022-07-30T10:50:22.102Z,28.00
2022-07-30T10:53:37.181Z,27.84
2022-07-30T10:56:38.734Z,27.77
2022-07-30T10:59:49.388Z,28.05
2022-07-30T11:03:15.042Z,28.37
2022-07-30T11:06:24.244Z,28.47
2022-07-30T11:09:41.081Z,28.26
2022-07-30T11:12:44.688Z,28.08
2022-07-30T11:16:00.098Z,27.71
2022-07-30T11:19:55.160Z,27.93
2022-07-30T11:22:44.417Z,27.85
2022-07-30T11:25:51.186Z,28.29
2022-07-30T11:28:56.071Z,28.46
2022-07-30T11:32:26.387Z,28.75
2022-07-30T11:35:34.374Z,29.04
2022-07-30T11:38:54.129Z,29.17
2022-07-30T11:42:24.560Z,28.86
2022-07-30T11:45:29.267Z,28.83
2022-07-30T11:48:31.391Z,28.69
2022-07-30T11:51:43.761Z,28.63
2022-07-30T11:54:55.081Z,28.55
2022-07-30T11:57:58.216Z,28.34
2022-07-30T12:01:11.546Z,28.36
2022-07-30T12:04:13.092Z,28.18
2022-07-30T12:07:22.466Z,28.09
2022-07-30T12:10:26.741Z,28.17
2022-07-30T12:13:44.517Z,28.20
2022-07-30T12:16:52.948Z,28.24
2022-07-30T12:19:54.418Z,28.12
2022-07-30T12:22:57.438Z,28.32
2022-07-30T12:25:59.218Z,28.83
2022-07-30T12:29:04.817Z,29.06
2022-07-30T12:32:06.412Z,29.26
2022-07-30T12:35:08.538Z,29.32
2022-07-30T12:38:09.985Z,29.38
2022-07-30T12:41:11.416Z,29.53
2022-07-30T12:44:34.559Z,29.67
2022-07-30T12:47:36.310Z,29.83
2022-07-30T12:50:37.851Z,29.61
2022-07-30T12:53:39.825Z,29.10
2022-07-30T12:56:41.826Z,28.90
2022-07-30T12:59:43.273Z,29.09
2022-07-30T13:02:44.830Z,29.31
2022-07-30T13:05:48.558Z,29.68
2022-07-30T13:08:58.205Z,29.53
2022-07-30T13:11:59.746Z,29.17
2022-07-30T13:15:01.949Z,28.97
2022-07-30T13:18:03.453Z,28.76
2022-07-30T13:21:08.085Z,28.74
2022-07-30T13:24:10.937Z,28.95
2022-07-30T13:27:19.829Z,28.85
2022-07-30T13:30:21.384Z,28.70
2022-07-30T13:33:22.813Z,29.06
2022-07-30T13:36:24.666Z,29.15
2022-07-30T13:39:26.115Z,28.93
2022-07-30T13:42:27.539Z,28.93
2022-07-30T13:45:30.065Z,28.95
2022-07-30T13:48:32.664Z,28.90
2022-07-30T13:51:34.194Z,28.94
2022-07-30T13:54:35.643Z,29.56
2022-07-30T13:57:37.076Z,29.98
2022-07-30T14:00:40.866Z,30.08
2022-07-30T14:03:47.104Z,29.81
2022-07-30T14:06:50.880Z,29.78
2022-07-30T14:09:54.502Z,29.53
2022-07-30T14:12:57.446Z,29.95
2022-07-30T14:15:59.354Z,30.43
2022-07-30T14:19:00.795Z,30.54
2022-07-30T14:22:02.254Z,30.72
2022-07-30T14:25:04.012Z,31.05
2022-07-30T14:28:05.412Z,31.07
2022-07-30T14:31:06.820Z,30.94
2022-07-30T14:34:08.612Z,30.60
2022-07-30T14:37:14.517Z,30.26
2022-07-30T14:40:16.356Z,29.89
2022-07-30T14:43:19.412Z,29.91
2022-07-30T14:46:20.867Z,30.11
2022-07-30T14:49:22.779Z,30.34
2022-07-30T14:52:25.892Z,30.20
2022-07-30T14:55:27.595Z,29.83
2022-07-30T14:58:29.020Z,29.67
2022-07-30T15:01:30.551Z,29.88
2022-07-30T15:04:32.004Z,30.36
2022-07-30T15:07:34.738Z,30.31
2022-07-30T15:10:36.374Z,30.26
2022-07-30T15:13:49.682Z,30.22
2022-07-30T15:16:52.174Z,30.07
2022-07-30T15:19:53.563Z,30.15
2022-07-30T15:22:55.160Z,30.53
2022-07-30T15:25:56.608Z,30.44
2022-07-30T15:28:58.078Z,30.15
2022-07-30T15:32:00.457Z,30.11
2022-07-30T15:35:02.369Z,29.95
2022-07-30T15:38:04.037Z,30.03
2022-07-30T15:41:06.900Z,29.96
2022-07-30T15:44:09.837Z,30.10
2022-07-30T15:47:13.142Z,30.40
2022-07-30T15:50:16.598Z,30.75
2022-07-30T15:53:18.118Z,30.63
2022-07-30T15:56:19.599Z,30.77
2022-07-30T15:59:21.460Z,30.43
2022-07-30T16:02:23.000Z,30.27
2022-07-30T16:05:24.470Z,30.75
2022-07-30T16:08:26.047Z,31.27
2022-07-30T16:11:27.514Z,30.93
2022-07-30T16:14:35.095Z,30.87
2022-07-30T16:17:37.234Z,30.88
2022-07-30T16:20:38.773Z,30.81
2022-07-30T16:23:40.214Z,30.57
2022-07-30T16:26:41.908Z,30.46
2022-07-30T16:29:43.347Z,30.45
2022-07-30T16:32:44.776Z,30.82
2022-07-30T16:35:49.048Z,30.94
2022-07-30T16:38:51.970Z,30.93
2022-07-30T16:41:53.428Z,31.32
2022-07-30T16:44:54.861Z,31.20
2022-07-30T16:47:56.630Z,31.27
2022-07-30T16:50:58.867Z,31.10
2022-07-30T16:54:00.340Z,30.97
2022-07-30T16:57:04.004Z,31.08
2022-07-30T17:00:14.617Z,30.99
2022-07-30T17:03:20.216Z,30.48
2022-07-30T17:06:21.894Z,30.32
2022-07-30T17:09:23.308Z,30.19
2022-07-30T17:12:25.388Z,30.47
2022-07-30T17:15:32.738Z,30.43
2022-07-30T17:18:34.684Z,30.14
2022-07-30T17:21:36.287Z,29.88
2022-07-30T17:24:37.767Z,29.79
2022-07-30T17:27:39.429Z,29.52
2022-07-30T17:30:40.848Z,29.31
2022-07-30T17:33:42.272Z,29.22
2022-07-30T17:36:52.230Z,29.18
2022-07-30T17:40:26.410Z,29.12
2022-07-30T17:43:15.955Z,29.10
2022-07-30T17:46:17.675Z,29.03
2022-07-30T17:49:19.131Z,28.99
2022-07-30T17:52:25.956Z,28.97
2022-07-30T17:55:28.834Z,28.98
2022-07-30T17:58:30.377Z,29.00
2022-07-30T18:01:32.314Z,29.04
2022-07-30T18:04:34.702Z,29.02
2022-07-30T18:07:37.027Z,28.93
2022-07-30T18:10:38.593Z,28.93
2022-07-30T18:13:40.397Z,28.90
2022-07-30T18:16:41.862Z,28.75
2022-07-30T18:19:43.351Z,28.66
2022-07-30T18:22:44.847Z,28.63
2022-07-30T18:25:53.070Z,28.62
2022-07-30T18:28:55.783Z,28.49
2022-07-30T18:31:57.277Z,28.33
2022-07-30T18:34:58.702Z,28.23
2022-07-30T18:38:00.282Z,28.13
2022-07-30T18:41:02.811Z,28.05
2022-07-30T18:44:04.481Z,27.92
2022-07-30T18:47:05.963Z,27.90
2022-07-30T18:50:08.291Z,27.82
2022-07-30T18:53:15.301Z,27.78
2022-07-30T18:56:17.401Z,27.71
2022-07-30T18:59:19.697Z,27.67
2022-07-30T19:02:25.260Z,27.60
2022-07-30T19:05:26.996Z,27.48
2022-07-30T19:08:28.605Z,27.45
2022-07-30T19:11:30.060Z,27.38
2022-07-30T19:14:31.559Z,27.31
2022-07-30T19:17:45.323Z,27.24
2022-07-30T19:20:50.507Z,27.16
2022-07-30T19:23:51.961Z,27.07
2022-07-30T19:26:53.509Z,27.05
2022-07-30T19:29:54.957Z,26.98
2022-07-30T19:33:03.503Z,26.94
2022-07-30T19:36:05.096Z,26.87
2022-07-30T19:39:07.660Z,26.85
2022-07-30T19:42:10.173Z,26.85
2022-07-30T19:45:13.207Z,26.86
2022-07-30T19:48:29.083Z,26.81
2022-07-30T19:52:09.459Z,26.75
2022-07-30T19:54:54.598Z,26.71
2022-07-30T19:57:56.447Z,26.66
2022-07-30T20:00:58.144Z,26.61
2022-07-30T20:04:01.278Z,26.57
2022-07-30T20:07:03.496Z,26.54
2022-07-30T20:10:07.681Z,26.49
2022-07-30T20:13:09.165Z,26.41
2022-07-30T20:16:15.367Z,26.37
2022-07-30T20:19:18.210Z,26.31
2022-07-30T20:22:23.975Z,26.32
2022-07-30T20:25:25.993Z,26.27
2022-07-30T20:28:27.400Z,26.22
2022-07-30T20:31:30.085Z,26.17
2022-07-30T20:34:35.500Z,26.07
2022-07-30T20:40:58.381Z,25.98
2022-07-30T20:44:02.377Z,25.95
2022-07-30T20:47:08.342Z,25.90
2022-07-30T20:50:11.979Z,25.83
2022-07-30T20:53:16.044Z,25.73
2022-07-30T20:56:20.028Z,25.63
2022-07-30T20:59:23.699Z,25.30
2022-07-30T21:02:28.271Z,25.37
2022-07-30T21:05:30.168Z,25.42
2022-07-30T21:08:32.808Z,25.34
2022-07-30T21:11:35.904Z,25.26
2022-07-30T21:14:37.452Z,25.12
2022-07-30T21:17:39.036Z,24.98
2022-07-30T21:20:40.955Z,24.86
2022-07-30T21:23:48.856Z,24.81
2022-07-30T21:26:51.480Z,24.59
2022-07-30T21:29:52.900Z,24.59
2022-07-30T21:32:55.113Z,24.57
2022-07-30T21:35:56.525Z,24.62
2022-07-30T21:38:59.461Z,24.56
2022-07-30T21:42:04.707Z,24.52
2022-07-30T21:45:07.150Z,24.52
2022-07-30T21:48:09.380Z,24.52
2022-07-30T21:51:13.643Z,24.48
2022-07-30T21:54:28.487Z,24.45
2022-07-30T21:57:31.560Z,24.42
2022-07-30T22:00:48.208Z,24.34
2022-07-30T22:04:03.246Z,24.31
2022-07-30T22:07:09.300Z,24.38
2022-07-30T22:10:12.899Z,24.43
2022-07-30T22:13:23.507Z,24.38
2022-07-30T22:16:25.211Z,24.38
2022-07-30T22:19:26.633Z,24.32
2022-07-30T22:22:35.539Z,24.32
2022-07-30T22:25:39.722Z,24.26
2022-07-30T22:28:46.599Z,24.15
2022-07-30T22:31:54.106Z,24.14
2022-07-30T22:34:55.740Z,23.93
2022-07-30T22:37:58.904Z,23.86
2022-07-30T22:41:01.400Z,23.91
2022-07-30T22:44:03.913Z,23.93
2022-07-30T22:50:27.437Z,23.80
2022-07-30T22:53:56.842Z,23.82
2022-07-30T22:56:50.716Z,23.76
2022-07-30T22:59:58.720Z,23.79
2022-07-30T23:03:02.035Z,23.79
2022-07-30T23:06:03.602Z,23.74
2022-07-30T23:09:05.134Z,23.76
2022-07-30T23:12:07.436Z,23.72
2022-07-30T23:12:18.232Z,26.00
2022-07-30T23:12:33.727Z,23.85
2022-07-30T23:15:10.462Z,23.70
2022-07-30T23:18:12.019Z,23.73
2022-07-30T23:21:14.019Z,23.68
2022-07-30T23:24:17.693Z,23.68
2022-07-30T23:27:19.374Z,23.59
2022-07-30T23:30:20.933Z,23.52
2022-07-30T23:33:22.391Z,23.52
2022-07-30T23:36:23.977Z,23.48
2022-07-30T23:39:25.453Z,23.45
2022-07-30T23:42:26.865Z,23.42
2022-07-30T23:45:28.425Z,23.39
2022-07-30T23:48:31.561Z,23.30
2022-07-30T23:51:33.565Z,23.31
2022-07-30T23:54:35.156Z,23.31
2022-07-30T23:57:37.209Z,23.26
